createdAt,value
2022-12-01T00:03:23.779Z,26.83
2022-12-01T00:06:45.598Z,25.45
2022-12-01T00:10:20.752Z,26.33
2022-12-01T00:13:32.622Z,27.67
2022-12-01T00:16:53.779Z,25.10
2022-12-01T00:20:15.727Z,25.73
2022-12-01T00:23:38.767Z,24.35
2022-12-01T00:27:00.703Z,31.45
2022-12-01T00:30:19.661Z,26.43
2022-12-01T00:33:31.364Z,22.95
2022-12-01T00:36:54.611Z,22.85
2022-12-01T00:40:30.581Z,22.80
2022-12-01T00:43:51.572Z,23.15
2022-12-01T00:47:15.605Z,27.77
2022-12-01T00:50:36.633Z,22.17
2022-12-01T00:53:56.723Z,23.50
2022-12-01T00:57:18.695Z,22.05
2022-12-01T01:00:42.606Z,23.90
2022-12-01T01:04:02.782Z,25.33
2022-12-01T01:07:22.487Z,25.90
2022-12-01T01:10:42.595Z,22.88
2022-12-01T01:14:02.673Z,21.05
2022-12-01T01:17:24.683Z,24.48
2022-12-01T01:20:44.499Z,23.40
2022-12-01T01:24:05.435Z,27.38
2022-12-01T01:27:25.612Z,25.90
2022-12-01T01:30:32.653Z,24.08
2022-12-01T01:33:36.842Z,21.83
2022-12-01T01:36:53.012Z,21.87
2022-12-01T01:40:22.325Z,24.67
2022-12-01T01:43:51.371Z,21.98
2022-12-01T01:47:08.342Z,23.38
2022-12-01T01:50:30.481Z,22.10
2022-12-01T01:53:34.075Z,21.50
2022-12-01T01:56:51.518Z,20.48
2022-12-01T02:00:08.169Z,22.63
2022-12-01T02:03:41.405Z,22.75
2022-12-01T02:07:07.380Z,20.98
2022-12-01T02:10:28.012Z,20.50
2022-12-01T02:14:11.198Z,21.95
2022-12-01T02:17:31.712Z,23.40
2022-12-01T02:21:28.656Z,22.95
2022-12-01T02:24:43.825Z,23.00
2022-12-01T02:28:08.760Z,23.23
2022-12-01T02:31:35.905Z,22.52
2022-12-01T02:34:48.820Z,23.67
2022-12-01T02:38:14.760Z,44.17
2022-12-01T02:41:55.464Z,21.25
2022-12-01T02:45:27.333Z,21.30
2022-12-01T02:48:43.936Z,23.17
2022-12-01T02:52:08.812Z,22.73
2022-12-01T02:55:28.845Z,20.58
2022-12-01T02:58:37.777Z,22.63
2022-12-01T03:02:11.901Z,23.20
2022-12-01T03:06:09.280Z,22.17
2022-12-01T03:09:45.564Z,24.05
2022-12-01T03:13:20.714Z,23.85
2022-12-01T03:16:49.218Z,22.98
2022-12-01T03:20:15.248Z,23.20
2022-12-01T03:23:23.816Z,21.55
2022-12-01T03:26:32.913Z,23.77
2022-12-01T03:29:51.783Z,21.55
2022-12-01T03:33:13.198Z,22.15
2022-12-01T03:36:36.149Z,20.80
2022-12-01T03:39:58.754Z,22.45
2022-12-01T03:43:21.504Z,22.83
2022-12-01T03:46:35.752Z,23.38
2022-12-01T03:49:59.202Z,22.15
2022-12-01T03:53:14.459Z,21.27
2022-12-01T03:56:21.982Z,22.00
2022-12-01T03:59:31.140Z,23.17
2022-12-01T04:02:49.847Z,19.50
2022-12-01T04:06:10.216Z,22.25
2022-12-01T04:09:33.924Z,19.00
2022-12-01T04:12:43.949Z,21.35
2022-12-01T04:15:56.976Z,19.90
2022-12-01T04:19:01.279Z,26.52
2022-12-01T04:22:10.618Z,21.75
2022-12-01T04:25:25.957Z,17.47
2022-12-01T04:28:32.649Z,21.00
2022-12-01T04:31:40.114Z,22.20
2022-12-01T04:34:50.296Z,22.85
2022-12-01T04:38:14.095Z,22.02
2022-12-01T04:41:17.513Z,21.50
2022-12-01T04:44:24.347Z,20.90
2022-12-01T04:47:28.160Z,22.63
2022-12-01T04:50:43.949Z,23.42
2022-12-01T04:54:06.545Z,23.10
2022-12-01T04:57:09.389Z,24.23
2022-12-01T05:00:15.947Z,23.55
2022-12-01T05:03:29.096Z,22.20
2022-12-01T05:06:52.068Z,22.50
2022-12-01T05:10:16.054Z,24.60
2022-12-01T05:13:36.070Z,24.67
2022-12-01T05:16:55.909Z,29.02
2022-12-01T05:20:37.905Z,22.17
2022-12-01T05:23:48.577Z,24.13
2022-12-01T05:26:54.750Z,26.00
2022-12-01T05:30:15.918Z,30.33
2022-12-01T05:33:27.104Z,23.52
2022-12-01T05:36:31.695Z,24.27
2022-12-01T05:39:45.826Z,57.67
2022-12-01T05:43:07.546Z,24.73
2022-12-01T05:46:11.876Z,28.47
2022-12-01T05:49:37.859Z,28.90
2022-12-01T05:53:00.474Z,26.13
2022-12-01T05:56:13.895Z,25.48
2022-12-01T05:59:19.814Z,26.05
2022-12-01T06:02:35.702Z,25.83
2022-12-01T06:05:51.901Z,26.83
2022-12-01T06:08:56.175Z,28.55
2022-12-01T06:12:01.943Z,32.97
2022-12-01T06:15:17.643Z,44.83
2022-12-01T06:18:31.990Z,46.90
2022-12-01T06:21:38.165Z,44.72
2022-12-01T06:25:01.730Z,42.22
2022-12-01T06:28:33.694Z,45.72
2022-12-01T06:31:51.115Z,41.65
2022-12-01T06:35:02.490Z,36.97
2022-12-01T06:38:25.674Z,38.67
2022-12-01T06:41:57.383Z,44.00
2022-12-01T06:45:01.252Z,38.33
2022-12-01T06:48:20.514Z,40.85
2022-12-01T06:51:38.813Z,47.63
2022-12-01T06:55:12.843Z,38.38
2022-12-01T06:58:35.922Z,47.97
2022-12-01T07:02:04.331Z,43.75
2022-12-01T07:05:31.928Z,38.85
2022-12-01T07:08:48.933Z,43.03
2022-12-01T07:17:32.785Z,41.03
2022-12-01T07:30:57.957Z,36.57
2022-12-01T07:34:16.947Z,32.05
2022-12-01T07:37:45.416Z,33.63
2022-12-01T07:40:51.251Z,37.25
2022-12-01T07:44:18.963Z,38.28
2022-12-01T07:48:16.857Z,39.20
2022-12-01T07:52:37.770Z,40.47
2022-12-01T07:56:08.621Z,44.83
2022-12-01T07:59:59.381Z,38.13
2022-12-01T08:03:45.815Z,36.78
2022-12-01T08:06:50.658Z,39.33
2022-12-01T08:10:02.479Z,36.33
2022-12-01T08:13:38.123Z,35.72
2022-12-01T08:17:27.437Z,40.00
2022-12-01T08:20:34.085Z,37.35
2022-12-01T08:28:22.514Z,34.35
2022-12-01T08:31:34.102Z,32.58
2022-12-01T08:35:32.129Z,33.30
2022-12-01T08:38:35.467Z,36.28
2022-12-01T08:41:52.706Z,32.50
2022-12-01T08:51:30.738Z,35.15
2022-12-01T08:54:40.910Z,36.65
2022-12-01T09:03:04.878Z,35.13
2022-12-01T09:11:42.290Z,37.75
2022-12-01T09:15:28.848Z,38.30
2022-12-01T09:19:04.981Z,41.28
2022-12-01T09:23:15.680Z,45.20
2022-12-01T09:26:32.398Z,45.03
2022-12-01T09:35:36.153Z,35.33
2022-12-01T09:39:34.228Z,32.67
2022-12-01T09:42:49.577Z,220.60
2022-12-01T09:46:06.605Z,200.43
2022-12-01T09:50:11.902Z,40.75
2022-12-01T09:54:00.888Z,36.47
2022-12-01T10:07:47.941Z,31.05
2022-12-01T10:11:47.343Z,29.25
2022-12-01T10:15:42.258Z,30.42
2022-12-01T10:24:22.315Z,22.70
2022-12-01T10:28:12.593Z,30.73
2022-12-01T10:31:50.856Z,25.30
2022-12-01T10:35:20.385Z,22.23
2022-12-01T10:39:46.213Z,47.63
2022-12-01T10:42:56.298Z,23.63
2022-12-01T10:50:29.075Z,24.55
2022-12-01T10:54:52.635Z,26.80
2022-12-01T10:58:23.480Z,22.15
2022-12-01T11:11:44.615Z,26.27
2022-12-01T11:15:46.017Z,23.02
2022-12-01T11:25:06.137Z,23.20
2022-12-01T11:34:06.684Z,21.48
2022-12-01T11:37:19.644Z,23.65
2022-12-01T11:40:46.866Z,19.70
2022-12-01T11:44:01.129Z,21.43
2022-12-01T11:47:23.608Z,19.40
2022-12-01T11:50:32.078Z,22.15
2022-12-01T11:53:41.733Z,21.70
2022-12-01T11:57:32.425Z,20.42
2022-12-01T12:00:54.513Z,21.20
2022-12-01T12:04:32.141Z,18.75
2022-12-01T12:08:29.335Z,22.35
2022-12-01T12:12:13.809Z,19.65
2022-12-01T12:20:20.343Z,18.13
2022-12-01T12:23:44.126Z,20.15
2022-12-01T12:27:26.820Z,22.88
2022-12-01T12:45:36.397Z,18.52
2022-12-01T12:49:22.281Z,19.35
2022-12-01T12:53:30.890Z,17.35
2022-12-01T12:57:36.279Z,19.38
2022-12-01T13:07:23.064Z,18.55
2022-12-01T13:17:15.505Z,19.05
2022-12-01T13:20:36.106Z,16.42
2022-12-01T13:23:45.996Z,16.73
2022-12-01T13:27:34.283Z,17.33
2022-12-01T13:31:49.902Z,18.33
2022-12-01T13:35:38.482Z,17.35
2022-12-01T13:39:18.972Z,20.95
2022-12-01T13:42:26.882Z,18.67
2022-12-01T13:45:45.011Z,17.85
2022-12-01T13:49:06.822Z,17.08
2022-12-01T13:53:07.687Z,14.93
2022-12-01T13:56:41.271Z,22.20
2022-12-01T14:00:24.295Z,18.33
2022-12-01T14:03:53.328Z,22.52
2022-12-01T14:07:21.467Z,17.45
2022-12-01T14:10:46.526Z,18.98
2022-12-01T14:13:57.436Z,17.80
2022-12-01T14:17:03.959Z,15.20
2022-12-01T14:20:20.184Z,20.23
2022-12-01T14:23:37.060Z,18.35
2022-12-01T14:26:46.711Z,24.65
2022-12-01T14:30:55.200Z,22.38
2022-12-01T14:34:32.268Z,19.10
2022-12-01T14:37:58.656Z,22.52
2022-12-01T14:41:21.099Z,18.10
2022-12-01T14:44:45.032Z,21.42
2022-12-01T14:48:10.133Z,22.23
2022-12-01T14:51:28.293Z,20.40
2022-12-01T14:54:50.097Z,22.20
2022-12-01T14:58:06.459Z,25.58
2022-12-01T15:01:41.591Z,20.02
2022-12-01T15:05:12.591Z,26.45
2022-12-01T15:08:58.347Z,18.53
2022-12-01T15:12:10.436Z,19.80
2022-12-01T15:15:22.411Z,19.60
2022-12-01T15:18:42.437Z,18.15
2022-12-01T15:21:59.711Z,20.85
2022-12-01T15:25:25.000Z,20.60
2022-12-01T15:28:50.303Z,19.00
2022-12-01T15:32:13.828Z,18.60
2022-12-01T15:35:25.247Z,23.80
2022-12-01T15:38:51.351Z,17.90
2022-12-01T15:42:09.762Z,25.43
2022-12-01T15:45:35.820Z,21.38
2022-12-01T15:48:40.325Z,25.67
2022-12-01T15:52:05.802Z,22.13
2022-12-01T15:55:51.801Z,20.52
2022-12-01T15:59:24.010Z,17.30
2022-12-01T16:02:35.797Z,23.67
2022-12-01T16:05:45.997Z,18.00
2022-12-01T16:09:08.047Z,21.80
2022-12-01T16:12:31.188Z,27.30
2022-12-01T16:15:55.843Z,25.33
2022-12-01T16:19:23.026Z,23.25
2022-12-01T16:22:42.050Z,25.60
2022-12-01T16:25:54.630Z,26.00
2022-12-01T16:29:23.026Z,25.70
2022-12-01T16:32:40.741Z,22.63
2022-12-01T16:36:00.463Z,25.23
2022-12-01T16:39:23.063Z,20.75
2022-12-01T16:42:51.064Z,19.63
2022-12-01T16:46:17.467Z,22.75
2022-12-01T16:49:39.901Z,20.50
2022-12-01T16:53:00.908Z,23.80
2022-12-01T16:56:28.654Z,21.20
2022-12-01T16:59:47.958Z,24.30
2022-12-01T17:03:11.053Z,28.02
2022-12-01T17:06:29.507Z,24.33
2022-12-01T17:09:53.981Z,24.73
2022-12-01T17:13:15.028Z,23.75
2022-12-01T17:16:25.080Z,29.80
2022-12-01T17:19:48.092Z,25.10
2022-12-01T17:23:11.929Z,36.47
2022-12-01T17:26:37.322Z,37.30
2022-12-01T17:30:04.925Z,38.53
2022-12-01T17:33:28.026Z,31.20
2022-12-01T17:36:51.172Z,34.88
2022-12-01T17:40:12.991Z,39.63
2022-12-01T17:43:36.136Z,41.22
2022-12-01T17:47:02.505Z,41.95
2022-12-01T17:50:20.075Z,39.08
2022-12-01T17:53:42.956Z,41.90
2022-12-01T17:57:04.015Z,37.47
2022-12-01T18:00:27.871Z,38.53
2022-12-01T18:03:51.019Z,41.15
2022-12-01T18:07:10.916Z,38.55
2022-12-01T18:10:31.129Z,39.65
2022-12-01T18:13:56.513Z,38.10
2022-12-01T18:17:10.986Z,38.30
2022-12-01T18:20:14.395Z,39.08
2022-12-01T18:23:17.978Z,45.38
2022-12-01T18:26:40.622Z,44.95
2022-12-01T18:30:01.566Z,42.23
2022-12-01T18:33:13.334Z,48.63
2022-12-01T18:36:30.875Z,44.00
2022-12-01T18:40:02.015Z,45.53
2022-12-01T18:43:05.441Z,44.40
2022-12-01T18:46:17.848Z,48.73
2022-12-01T18:49:29.261Z,50.58
2022-12-01T18:52:38.838Z,48.60
2022-12-01T18:55:45.779Z,48.25
2022-12-01T18:59:05.123Z,48.10
2022-12-01T19:02:11.452Z,51.10
2022-12-01T19:05:29.019Z,50.00
2022-12-01T19:08:44.813Z,50.10
2022-12-01T19:12:00.171Z,49.75
2022-12-01T19:15:16.722Z,47.15
2022-12-01T19:18:46.615Z,48.43
2022-12-01T19:22:09.748Z,52.78
2022-12-01T19:25:41.896Z,45.28
2022-12-01T19:29:00.658Z,46.88
2022-12-01T19:32:23.738Z,47.97
2022-12-01T19:35:45.704Z,42.83
2022-12-01T19:39:08.801Z,49.42
2022-12-01T19:42:20.646Z,48.65
2022-12-01T19:45:43.773Z,58.78
2022-12-01T19:49:15.823Z,51.40
2022-12-01T19:52:36.750Z,53.70
2022-12-01T19:55:52.573Z,53.15
2022-12-01T19:59:13.295Z,48.70
2022-12-01T20:02:38.761Z,51.97
2022-12-01T20:06:03.284Z,49.33
2022-12-01T20:09:25.599Z,57.40
2022-12-01T20:12:49.752Z,50.92
2022-12-01T20:16:14.856Z,48.67
2022-12-01T20:19:36.344Z,47.40
2022-12-01T20:22:53.698Z,52.13
2022-12-01T20:26:15.405Z,51.87
2022-12-01T20:29:35.552Z,45.58
2022-12-01T20:32:59.562Z,48.42
2022-12-01T20:36:23.106Z,51.90
2022-12-01T20:39:46.620Z,54.80
2022-12-01T20:43:04.607Z,56.37
2022-12-01T20:46:28.781Z,56.58
2022-12-01T20:49:45.747Z,54.22
2022-12-01T20:53:05.506Z,58.92
2022-12-01T20:56:26.891Z,55.22
2022-12-01T20:59:52.617Z,58.07
2022-12-01T21:03:12.595Z,57.90
2022-12-01T21:06:28.942Z,59.17
2022-12-01T21:09:32.818Z,52.88
2022-12-01T21:13:08.928Z,59.85
2022-12-01T21:16:35.250Z,59.37
2022-12-01T21:19:47.719Z,56.58
2022-12-01T21:23:01.560Z,60.05
2022-12-01T21:26:14.785Z,58.90
2022-12-01T21:29:32.626Z,58.95
2022-12-01T21:33:02.236Z,58.83
2022-12-01T21:36:22.627Z,52.47
2022-12-01T21:39:44.488Z,59.35
2022-12-01T21:43:07.470Z,59.08
2022-12-01T21:46:30.463Z,65.38
2022-12-01T21:49:52.593Z,61.37
2022-12-01T21:53:08.342Z,54.35
2022-12-01T21:56:38.557Z,63.03
2022-12-01T21:59:58.589Z,55.17
2022-12-01T22:03:33.284Z,53.65
2022-12-01T22:06:47.574Z,57.60
2022-12-01T22:10:09.121Z,62.97
2022-12-01T22:13:22.377Z,62.03
2022-12-01T22:16:50.212Z,59.67
2022-12-01T22:20:02.577Z,57.05
2022-12-01T22:23:20.295Z,54.97
2022-12-01T22:26:26.461Z,52.22
2022-12-01T22:29:33.992Z,55.78
2022-12-01T22:33:10.147Z,50.75
2022-12-01T22:36:24.847Z,55.65
2022-12-01T22:39:40.129Z,58.77
2022-12-01T22:43:00.792Z,58.30
2022-12-01T22:46:17.671Z,56.00
2022-12-01T22:49:43.305Z,53.33
2022-12-01T22:53:08.232Z,58.20
2022-12-01T22:56:32.363Z,54.47
2022-12-01T22:59:56.119Z,58.75
2022-12-01T23:03:15.077Z,58.90
2022-12-01T23:06:52.602Z,59.53
2022-12-01T23:10:11.156Z,65.25
2022-12-01T23:13:24.946Z,62.20
2022-12-01T23:16:44.252Z,62.05
2022-12-01T23:20:16.421Z,63.53
2022-12-01T23:23:37.169Z,61.33
2022-12-01T23:26:52.308Z,63.03
2022-12-01T23:30:13.986Z,63.17
2022-12-01T23:33:33.123Z,58.60
2022-12-01T23:36:57.112Z,66.50
2022-12-01T23:40:33.555Z,64.90
2022-12-01T23:43:43.088Z,65.90
2022-12-01T23:47:07.136Z,62.37
2022-12-01T23:50:31.918Z,58.97
2022-12-01T23:53:49.877Z,59.65
2022-12-01T23:57:34.366Z,57.38
